sensor_id;sensor_type;location;lat;lon;timestamp;pressure;altitude;pressure_sealevel;temperature;humidity
58973;BME280;44750;52.040;7.472;2023-01-26T00:00:09;101145.41;;;-1.22;98.14
58973;BME280;44750;52.040;7.472;2023-01-26T00:05:10;101162.59;;;-1.31;97.11
58973;BME280;44750;52.040;7.472;2023-01-26T00:10:10;101170.59;;;-1.10;94.32
58973;BME280;44750;52.040;7.472;2023-01-26T00:15:11;101163.69;;;-1.14;93.38
58973;BME280;44750;52.040;7.472;2023-01-26T00:20:11;101125.09;;;-1.44;93.69
58973;BME280;44750;52.040;7.472;2023-01-26T00:25:11;101132.13;;;-1.43;91.27
58973;BME280;44750;52.040;7.472;2023-01-26T00:30:12;101146.13;;;-1.39;89.92
58973;BME280;44750;52.040;7.472;2023-01-26T00:35:12;101140.50;;;-1.31;87.50
58973;BME280;44750;52.040;7.472;2023-01-26T00:40:12;101149.00;;;-1.23;85.59
58973;BME280;44750;52.040;7.472;2023-01-26T00:45:13;101153.84;;;-1.12;84.04
58973;BME280;44750;52.040;7.472;2023-01-26T00:50:13;101163.28;;;-1.05;82.52
58973;BME280;44750;52.040;7.472;2023-01-26T00:55:14;101144.03;;;-1.10;82.43
58973;BME280;44750;52.040;7.472;2023-01-26T01:00:15;101135.16;;;-1.11;81.69
58973;BME280;44750;52.040;7.472;2023-01-26T01:05:16;101161.25;;;-1.00;80.07
58973;BME280;44750;52.040;7.472;2023-01-26T01:10:16;101152.94;;;-0.92;78.46
58973;BME280;44750;52.040;7.472;2023-01-26T01:15:16;101131.50;;;-1.08;78.49
58973;BME280;44750;52.040;7.472;2023-01-26T01:20:17;101135.72;;;-1.03;78.64
58973;BME280;44750;52.040;7.472;2023-01-26T01:25:17;101144.53;;;-1.02;77.73
58973;BME280;44750;52.040;7.472;2023-01-26T01:30:17;101140.63;;;-0.93;76.52
58973;BME280;44750;52.040;7.472;2023-01-26T01:35:18;101116.22;;;-1.03;76.64
58973;BME280;44750;52.040;7.472;2023-01-26T01:40:18;101149.59;;;-0.96;75.42
58973;BME280;44750;52.040;7.472;2023-01-26T01:50:30;101146.72;;;-0.91;74.36
58973;BME280;44750;52.040;7.472;2023-01-26T01:55:33;101159.00;;;-0.89;73.73
58973;BME280;44750;52.040;7.472;2023-01-26T02:00:34;101146.63;;;-0.90;73.67
58973;BME280;44750;52.040;7.472;2023-01-26T02:05:39;101138.88;;;-0.94;73.43
58973;BME280;44750;52.040;7.472;2023-01-26T02:10:45;101137.66;;;-0.87;72.55
58973;BME280;44750;52.040;7.472;2023-01-26T02:15:46;101127.25;;;-0.92;72.52
58973;BME280;44750;52.040;7.472;2023-01-26T02:20:52;101128.03;;;-0.90;71.93
58973;BME280;44750;52.040;7.472;2023-01-26T02:30:56;101136.09;;;-0.72;69.91
58973;BME280;44750;52.040;7.472;2023-01-26T02:35:56;101132.53;;;-0.71;69.93
58973;BME280;44750;52.040;7.472;2023-01-26T02:41:00;101127.19;;;-0.71;69.76
58973;BME280;44750;52.040;7.472;2023-01-26T02:46:02;101124.41;;;-0.68;69.33
58973;BME280;44750;52.040;7.472;2023-01-26T02:51:03;101116.06;;;-0.79;69.79
58973;BME280;44750;52.040;7.472;2023-01-26T02:56:04;101141.16;;;-0.66;68.54
58973;BME280;44750;52.040;7.472;2023-01-26T03:01:04;101146.31;;;-0.63;67.78
58973;BME280;44750;52.040;7.472;2023-01-26T03:06:04;101137.41;;;-0.62;67.14
58973;BME280;44750;52.040;7.472;2023-01-26T03:11:06;101144.13;;;-0.53;65.95
58973;BME280;44750;52.040;7.472;2023-01-26T03:16:07;101143.16;;;-0.52;65.71
58973;BME280;44750;52.040;7.472;2023-01-26T03:21:11;101131.25;;;-0.62;65.84
58973;BME280;44750;52.040;7.472;2023-01-26T03:26:11;101139.16;;;-0.61;65.37
58973;BME280;44750;52.040;7.472;2023-01-26T03:31:12;101132.91;;;-0.60;64.28
58973;BME280;44750;52.040;7.472;2023-01-26T03:36:12;101139.88;;;-0.57;63.77
58973;BME280;44750;52.040;7.472;2023-01-26T03:41:12;101153.59;;;-0.47;62.47
58973;BME280;44750;52.040;7.472;2023-01-26T03:46:12;101155.25;;;-0.45;61.68
58973;BME280;44750;52.040;7.472;2023-01-26T03:51:12;101151.59;;;-0.42;60.98
58973;BME280;44750;52.040;7.472;2023-01-26T03:56:13;101141.88;;;-0.43;60.88
58973;BME280;44750;52.040;7.472;2023-01-26T04:01:14;101153.19;;;-0.38;60.36
58973;BME280;44750;52.040;7.472;2023-01-26T04:06:14;101152.28;;;-0.39;59.61
58973;BME280;44750;52.040;7.472;2023-01-26T04:11:15;101154.34;;;-0.44;59.67
58973;BME280;44750;52.040;7.472;2023-01-26T04:16:15;101148.28;;;-0.47;59.22
58973;BME280;44750;52.040;7.472;2023-01-26T04:21:15;101153.44;;;-0.44;58.21
58973;BME280;44750;52.040;7.472;2023-01-26T04:26:16;101170.72;;;-0.34;56.80
58973;BME280;44750;52.040;7.472;2023-01-26T04:31:16;101167.91;;;-0.31;56.08
58973;BME280;44750;52.040;7.472;2023-01-26T04:36:16;101161.06;;;-0.37;55.92
58973;BME280;44750;52.040;7.472;2023-01-26T04:41:16;101180.94;;;-0.25;54.62
58973;BME280;44750;52.040;7.472;2023-01-26T04:46:17;101171.13;;;-0.24;54.17
58973;BME280;44750;52.040;7.472;2023-01-26T04:51:20;101167.38;;;-0.20;53.54
58973;BME280;44750;52.040;7.472;2023-01-26T04:56:24;101162.31;;;-0.25;53.45
58973;BME280;44750;52.040;7.472;2023-01-26T05:01:25;101167.63;;;-0.25;53.22
58973;BME280;44750;52.040;7.472;2023-01-26T05:06:25;101156.47;;;-0.33;53.04
58973;BME280;44750;52.040;7.472;2023-01-26T05:11:25;101168.69;;;-0.29;51.43
58973;BME280;44750;52.040;7.472;2023-01-26T05:16:26;101165.03;;;-0.26;50.15
58973;BME280;44750;52.040;7.472;2023-01-26T05:21:26;101186.09;;;-0.22;49.41
58973;BME280;44750;52.040;7.472;2023-01-26T05:26:26;101182.66;;;-0.24;49.08
58973;BME280;44750;52.040;7.472;2023-01-26T05:31:27;101179.50;;;-0.32;48.57
58973;BME280;44750;52.040;7.472;2023-01-26T05:36:27;101183.59;;;-0.25;47.68
58973;BME280;44750;52.040;7.472;2023-01-26T05:41:27;101207.09;;;-0.15;46.51
58973;BME280;44750;52.040;7.472;2023-01-26T05:46:27;101204.53;;;-0.17;46.44
58973;BME280;44750;52.040;7.472;2023-01-26T05:51:28;101203.63;;;-0.18;45.84
58973;BME280;44750;52.040;7.472;2023-01-26T05:56:28;101213.00;;;-0.09;44.86
58973;BME280;44750;52.040;7.472;2023-01-26T06:01:28;101213.06;;;-0.10;44.53
58973;BME280;44750;52.040;7.472;2023-01-26T06:06:28;101222.66;;;-0.06;43.74
58973;BME280;44750;52.040;7.472;2023-01-26T06:11:30;101218.81;;;-0.01;43.13
58973;BME280;44750;52.040;7.472;2023-01-26T06:16:30;101211.56;;;0.03;41.87
58973;BME280;44750;52.040;7.472;2023-01-26T06:21:31;101215.97;;;0.04;41.81
58973;BME280;44750;52.040;7.472;2023-01-26T06:26:31;101212.56;;;0.01;42.00
58973;BME280;44750;52.040;7.472;2023-01-26T06:31:35;101220.63;;;-0.01;41.65
58973;BME280;44750;52.040;7.472;2023-01-26T06:36:35;101224.22;;;-0.02;41.41
58973;BME280;44750;52.040;7.472;2023-01-26T06:41:36;101230.19;;;0.03;40.49
58973;BME280;44750;52.040;7.472;2023-01-26T06:46:36;101246.81;;;0.08;39.36
58973;BME280;44750;52.040;7.472;2023-01-26T06:51:51;101243.34;;;0.06;39.08
58973;BME280;44750;52.040;7.472;2023-01-26T06:56:54;101250.25;;;0.10;37.86
58973;BME280;44750;52.040;7.472;2023-01-26T07:01:56;101235.59;;;0.02;38.18
58973;BME280;44750;52.040;7.472;2023-01-26T07:06:56;101249.59;;;0.05;37.36
58973;BME280;44750;52.040;7.472;2023-01-26T07:11:56;101267.38;;;0.24;34.71
58973;BME280;44750;52.040;7.472;2023-01-26T07:16:56;101269.91;;;0.27;35.06
58973;BME280;44750;52.040;7.472;2023-01-26T07:21:57;101276.31;;;0.23;35.62
58973;BME280;44750;52.040;7.472;2023-01-26T07:26:57;101278.97;;;0.23;35.08
58973;BME280;44750;52.040;7.472;2023-01-26T07:31:57;101289.56;;;0.24;34.52
58973;BME280;44750;52.040;7.472;2023-01-26T07:36:57;101282.41;;;0.25;34.31
58973;BME280;44750;52.040;7.472;2023-01-26T07:41:58;101286.97;;;0.23;33.90
58973;BME280;44750;52.040;7.472;2023-01-26T07:46:58;101302.47;;;0.32;33.10
58973;BME280;44750;52.040;7.472;2023-01-26T07:51:58;101304.22;;;0.33;33.03
58973;BME280;44750;52.040;7.472;2023-01-26T07:56:59;101293.06;;;0.25;32.46
58973;BME280;44750;52.040;7.472;2023-01-26T08:01:59;101300.78;;;0.31;31.82
58973;BME280;44750;52.040;7.472;2023-01-26T08:07:00;101319.91;;;0.39;31.16
58973;BME280;44750;52.040;7.472;2023-01-26T08:12:00;101319.84;;;0.41;31.12
58973;BME280;44750;52.040;7.472;2023-01-26T08:17:01;101335.53;;;0.47;30.17
58973;BME280;44750;52.040;7.472;2023-01-26T08:22:01;101340.78;;;0.48;29.62
58973;BME280;44750;52.040;7.472;2023-01-26T08:27:01;101353.03;;;0.53;28.72
58973;BME280;44750;52.040;7.472;2023-01-26T08:32:01;101337.03;;;0.53;28.61
58973;BME280;44750;52.040;7.472;2023-01-26T08:37:02;101324.72;;;0.50;28.41
58973;BME280;44750;52.040;7.472;2023-01-26T08:42:02;101340.47;;;0.55;28.35
58973;BME280;44750;52.040;7.472;2023-01-26T08:47:02;101347.09;;;0.65;27.32
58973;BME280;44750;52.040;7.472;2023-01-26T08:52:03;101350.56;;;0.67;26.80
58973;BME280;44750;52.040;7.472;2023-01-26T08:57:03;101352.59;;;0.62;27.12
58973;BME280;44750;52.040;7.472;2023-01-26T09:02:03;101373.75;;;0.65;26.03
58973;BME280;44750;52.040;7.472;2023-01-26T09:07:04;101375.31;;;0.69;26.02
58973;BME280;44750;52.040;7.472;2023-01-26T09:12:04;101380.53;;;0.72;25.38
58973;BME280;44750;52.040;7.472;2023-01-26T09:17:04;101397.94;;;0.79;24.64
58973;BME280;44750;52.040;7.472;2023-01-26T09:22:05;101391.84;;;0.77;24.16
58973;BME280;44750;52.040;7.472;2023-01-26T09:27:05;101392.53;;;0.81;23.69
58973;BME280;44750;52.040;7.472;2023-01-26T09:32:05;101409.75;;;0.93;22.55
58973;BME280;44750;52.040;7.472;2023-01-26T09:37:06;101414.91;;;0.96;22.12
58973;BME280;44750;52.040;7.472;2023-01-26T09:47:52;101421.78;;;1.02;21.15
58973;BME280;44750;52.040;7.472;2023-01-26T09:52:59;101425.16;;;1.05;20.10
58973;BME280;44750;52.040;7.472;2023-01-26T09:58:04;101422.47;;;1.05;20.23
58973;BME280;44750;52.040;7.472;2023-01-26T10:03:27;101404.97;;;0.99;19.97
58973;BME280;44750;52.040;7.472;2023-01-26T10:08:28;101422.84;;;1.16;18.64
58973;BME280;44750;52.040;7.472;2023-01-26T10:13:29;101416.69;;;1.14;18.36
58973;BME280;44750;52.040;7.472;2023-01-26T10:18:32;101426.28;;;1.19;17.82
58973;BME280;44750;52.040;7.472;2023-01-26T10:23:34;101412.09;;;1.18;17.44
58973;BME280;44750;52.040;7.472;2023-01-26T10:28:34;101399.75;;;1.15;17.25
58973;BME280;44750;52.040;7.472;2023-01-26T10:33:36;101410.06;;;1.23;16.50
58973;BME280;44750;52.040;7.472;2023-01-26T10:43:41;101414.47;;;1.42;15.71
58973;BME280;44750;52.040;7.472;2023-01-26T10:48:41;101416.13;;;1.44;15.63
58973;BME280;44750;52.040;7.472;2023-01-26T10:53:50;101421.16;;;1.50;15.07
58973;BME280;44750;52.040;7.472;2023-01-26T10:58:59;101417.41;;;1.55;14.59
58973;BME280;44750;52.040;7.472;2023-01-26T11:04:06;101412.28;;;1.50;14.77
58973;BME280;44750;52.040;7.472;2023-01-26T11:14:18;101437.59;;;1.60;14.86
58973;BME280;44750;52.040;7.472;2023-01-26T11:24:50;101433.72;;;1.66;13.20
58973;BME280;44750;52.040;7.472;2023-01-26T11:29:58;101431.22;;;1.63;13.52
58973;BME280;44750;52.040;7.472;2023-01-26T11:35:36;101436.09;;;1.72;11.89
58973;BME280;44750;52.040;7.472;2023-01-26T11:40:50;101437.97;;;1.70;11.69
58973;BME280;44750;52.040;7.472;2023-01-26T11:56:43;101438.22;;;1.83;9.07
58973;BME280;44750;52.040;7.472;2023-01-26T12:01:57;101427.53;;;1.83;8.03
58973;BME280;44750;52.040;7.472;2023-01-26T12:07:08;101437.56;;;1.95;6.48
58973;BME280;44750;52.040;7.472;2023-01-26T12:12:33;101443.94;;;1.93;5.52
58973;BME280;44750;52.040;7.472;2023-01-26T12:28:35;101440.03;;;2.00;0.98
58973;BME280;44750;52.040;7.472;2023-01-26T12:33:36;101457.75;;;2.01;0.00
58973;BME280;44750;52.040;7.472;2023-01-26T12:44:05;101480.06;;;2.17;0.00
58973;BME280;44750;52.040;7.472;2023-01-26T12:54:22;101492.84;;;2.28;0.00
58973;BME280;44750;52.040;7.472;2023-01-26T12:59:32;101498.13;;;2.30;0.00
58973;BME280;44750;52.040;7.472;2023-01-26T13:04:34;101524.03;;;2.45;0.00
58973;BME280;44750;52.040;7.472;2023-01-26T13:09:35;101536.75;;;2.58;0.00
58973;BME280;44750;52.040;7.472;2023-01-26T13:14:37;101565.81;;;2.81;0.00
58973;BME280;44750;52.040;7.472;2023-01-26T13:19:57;101583.78;;;2.95;0.00
58973;BME280;44750;52.040;7.472;2023-01-26T13:25:10;101589.16;;;3.11;0.00
58973;BME280;44750;52.040;7.472;2023-01-26T13:35:22;101612.75;;;3.21;0.00
58973;BME280;44750;52.040;7.472;2023-01-26T13:40:36;101654.47;;;3.41;0.00
58973;BME280;44750;52.040;7.472;2023-01-26T13:46:07;101651.22;;;3.51;0.00
58973;BME280;44750;52.040;7.472;2023-01-26T13:51:15;101684.06;;;3.71;0.00
58973;BME280;44750;52.040;7.472;2023-01-26T13:56:35;101717.53;;;3.96;0.00
58973;BME280;44750;52.040;7.472;2023-01-26T14:01:55;101719.09;;;4.00;0.00
58973;BME280;44750;52.040;7.472;2023-01-26T14:07:13;101762.31;;;4.26;0.00
58973;BME280;44750;52.040;7.472;2023-01-26T14:12:27;101761.88;;;4.17;0.00
58973;BME280;44750;52.040;7.472;2023-01-26T14:17:34;101804.06;;;4.30;0.00
58973;BME280;44750;52.040;7.472;2023-01-26T14:22:35;101839.88;;;4.45;0.00
58973;BME280;44750;52.040;7.472;2023-01-26T14:27:40;101814.59;;;4.33;0.00
58973;BME280;44750;52.040;7.472;2023-01-26T14:32:41;101845.25;;;4.61;0.00
58973;BME280;44750;52.040;7.472;2023-01-26T14:37:41;101852.69;;;4.56;0.00
58973;BME280;44750;52.040;7.472;2023-01-26T14:42:42;101877.28;;;4.64;0.00
58973;BME280;44750;52.040;7.472;2023-01-26T14:47:42;101890.94;;;4.75;0.00
58973;BME280;44750;52.040;7.472;2023-01-26T14:52:43;101905.13;;;4.77;0.00
58973;BME280;44750;52.040;7.472;2023-01-26T14:57:44;101913.75;;;4.82;0.00
58973;BME280;44750;52.040;7.472;2023-01-26T15:02:46;101921.47;;;4.89;0.00
58973;BME280;44750;52.040;7.472;2023-01-26T15:07:57;101945.38;;;4.93;0.00
58973;BME280;44750;52.040;7.472;2023-01-26T15:23:28;101955.16;;;5.10;0.00
58973;BME280;44750;52.040;7.472;2023-01-26T15:28:29;101938.19;;;5.10;0.00
58973;BME280;44750;52.040;7.472;2023-01-26T15:33:39;101943.88;;;5.19;0.00
58973;BME280;44750;52.040;7.472;2023-01-26T15:38:39;101940.25;;;5.21;0.00
58973;BME280;44750;52.040;7.472;2023-01-26T15:43:39;101939.22;;;5.23;0.00
58973;BME280;44750;52.040;7.472;2023-01-26T15:48:40;101914.81;;;5.12;0.00
58973;BME280;44750;52.040;7.472;2023-01-26T15:53:40;101935.69;;;5.23;0.00
58973;BME280;44750;52.040;7.472;2023-01-26T15:58:41;101938.19;;;5.26;0.00
58973;BME280;44750;52.040;7.472;2023-01-26T16:03:41;101945.88;;;5.32;0.00
58973;BME280;44750;52.040;7.472;2023-01-26T16:08:42;101931.06;;;5.25;0.00
58973;BME280;44750;52.040;7.472;2023-01-26T16:13:42;101929.53;;;5.21;0.00
58973;BME280;44750;52.040;7.472;2023-01-26T16:18:42;101926.59;;;5.25;0.00
58973;BME280;44750;52.040;7.472;2023-01-26T16:23:43;101940.88;;;5.26;0.00
58973;BME280;44750;52.040;7.472;2023-01-26T16:28:44;101946.84;;;5.31;0.00
58973;BME280;44750;52.040;7.472;2023-01-26T16:33:46;101937.13;;;5.28;0.00
58973;BME280;44750;52.040;7.472;2023-01-26T16:38:47;101948.47;;;5.33;0.00
58973;BME280;44750;52.040;7.472;2023-01-26T16:43:48;101952.81;;;5.36;0.00
58973;BME280;44750;52.040;7.472;2023-01-26T16:48:48;101942.16;;;5.34;0.00
58973;BME280;44750;52.040;7.472;2023-01-26T16:53:49;101950.78;;;5.40;0.00
58973;BME280;44750;52.040;7.472;2023-01-26T16:58:49;101939.00;;;5.42;0.00
58973;BME280;44750;52.040;7.472;2023-01-26T17:03:50;101898.25;;;5.19;0.00
58973;BME280;44750;52.040;7.472;2023-01-26T17:08:50;101890.09;;;5.21;0.00
58973;BME280;44750;52.040;7.472;2023-01-26T17:13:51;101905.06;;;5.41;0.00
58973;BME280;44750;52.040;7.472;2023-01-26T17:18:52;101886.69;;;5.49;0.00
58973;BME280;44750;52.040;7.472;2023-01-26T17:23:53;101840.25;;;5.47;0.00
58973;BME280;44750;52.040;7.472;2023-01-26T17:28:54;101804.66;;;5.44;0.00
58973;BME280;44750;52.040;7.472;2023-01-26T17:33:55;101776.00;;;5.44;0.00
58973;BME280;44750;52.040;7.472;2023-01-26T17:38:55;101770.41;;;5.47;0.00
58973;BME280;44750;52.040;7.472;2023-01-26T17:43:55;101731.50;;;5.40;0.00
58973;BME280;44750;52.040;7.472;2023-01-26T17:48:55;101709.13;;;5.40;0.00
58973;BME280;44750;52.040;7.472;2023-01-26T17:53:55;101684.97;;;5.40;0.00
58973;BME280;44750;52.040;7.472;2023-01-26T17:58:56;101631.66;;;5.19;0.00
58973;BME280;44750;52.040;7.472;2023-01-26T18:03:56;101614.13;;;5.13;0.00
58973;BME280;44750;52.040;7.472;2023-01-26T18:08:56;101613.34;;;5.26;0.00
58973;BME280;44750;52.040;7.472;2023-01-26T18:13:57;101596.28;;;5.27;0.00
58973;BME280;44750;52.040;7.472;2023-01-26T18:18:58;101559.28;;;5.17;0.00
58973;BME280;44750;52.040;7.472;2023-01-26T18:24:00;101535.03;;;5.19;0.00
58973;BME280;44750;52.040;7.472;2023-01-26T18:29:02;101514.22;;;5.23;0.00
58973;BME280;44750;52.040;7.472;2023-01-26T18:34:03;101493.59;;;5.23;0.00
58973;BME280;44750;52.040;7.472;2023-01-26T18:39:06;101472.81;;;5.27;0.00
58973;BME280;44750;52.040;7.472;2023-01-26T18:44:08;101442.84;;;5.33;0.00
58973;BME280;44750;52.040;7.472;2023-01-26T18:49:09;101425.66;;;5.23;2.92
58973;BME280;44750;52.040;7.472;2023-01-26T18:54:09;101403.28;;;5.22;7.13
58973;BME280;44750;52.040;7.472;2023-01-26T18:59:09;101346.53;;;5.01;13.04
58973;BME280;44750;52.040;7.472;2023-01-26T19:04:09;101321.97;;;5.07;18.72
58973;BME280;44750;52.040;7.472;2023-01-26T19:09:10;101282.69;;;5.06;24.24
58973;BME280;44750;52.040;7.472;2023-01-26T19:14:10;101255.66;;;5.09;29.79
58973;BME280;44750;52.040;7.472;2023-01-26T19:19:10;101225.72;;;5.15;33.44
58973;BME280;44750;52.040;7.472;2023-01-26T19:24:11;101190.50;;;5.07;37.39
58973;BME280;44750;52.040;7.472;2023-01-26T19:29:11;101160.66;;;4.99;40.10
58973;BME280;44750;52.040;7.472;2023-01-26T19:34:12;101150.56;;;5.02;40.79
58973;BME280;44750;52.040;7.472;2023-01-26T19:39:13;101139.84;;;5.02;41.89
58973;BME280;44750;52.040;7.472;2023-01-26T19:44:13;101118.47;;;5.01;42.43
58973;BME280;44750;52.040;7.472;2023-01-26T19:49:13;101126.84;;;5.09;42.34
58973;BME280;44750;52.040;7.472;2023-01-26T19:54:13;101102.38;;;5.01;43.49
58973;BME280;44750;52.040;7.472;2023-01-26T19:59:14;101114.19;;;5.11;42.36
58973;BME280;44750;52.040;7.472;2023-01-26T20:04:14;101091.97;;;4.96;42.90
58973;BME280;44750;52.040;7.472;2023-01-26T20:09:14;101084.22;;;4.92;42.84
58973;BME280;44750;52.040;7.472;2023-01-26T20:14:14;101069.53;;;4.72;42.65
58973;BME280;44750;52.040;7.472;2023-01-26T20:19:15;101072.75;;;4.77;42.13
58973;BME280;44750;52.040;7.472;2023-01-26T20:24:15;101072.44;;;4.81;42.22
58973;BME280;44750;52.040;7.472;2023-01-26T20:29:19;101052.47;;;4.60;43.79
58973;BME280;44750;52.040;7.472;2023-01-26T20:34:19;101072.84;;;4.75;43.70
58973;BME280;44750;52.040;7.472;2023-01-26T20:39:21;101054.31;;;4.72;44.96
58973;BME280;44750;52.040;7.472;2023-01-26T20:44:21;101057.31;;;4.80;45.08
58973;BME280;44750;52.040;7.472;2023-01-26T20:49:21;101045.63;;;4.81;46.27
58973;BME280;44750;52.040;7.472;2023-01-26T20:54:21;101034.59;;;4.73;47.17
58973;BME280;44750;52.040;7.472;2023-01-26T20:59:22;101027.50;;;4.72;47.42
58973;BME280;44750;52.040;7.472;2023-01-26T21:04:22;101042.06;;;4.81;48.25
58973;BME280;44750;52.040;7.472;2023-01-26T21:09:22;101037.25;;;4.73;49.34
58973;BME280;44750;52.040;7.472;2023-01-26T21:14:23;100999.81;;;4.59;50.94
58973;BME280;44750;52.040;7.472;2023-01-26T21:19:23;100993.38;;;4.48;54.01
58973;BME280;44750;52.040;7.472;2023-01-26T21:24:24;100994.47;;;4.59;55.82
58973;BME280;44750;52.040;7.472;2023-01-26T21:29:24;101005.38;;;4.68;58.50
58973;BME280;44750;52.040;7.472;2023-01-26T21:34:25;100981.13;;;4.70;60.29
58973;BME280;44750;52.040;7.472;2023-01-26T21:39:25;100963.78;;;4.63;62.40
58973;BME280;44750;52.040;7.472;2023-01-26T21:44:27;100951.66;;;4.57;63.84
58973;BME280;44750;52.040;7.472;2023-01-26T21:49:28;100960.97;;;4.64;64.85
58973;BME280;44750;52.040;7.472;2023-01-26T21:54:29;100963.84;;;4.74;65.09
58973;BME280;44750;52.040;7.472;2023-01-26T21:59:30;100911.69;;;4.41;67.79
58973;BME280;44750;52.040;7.472;2023-01-26T22:04:30;100929.56;;;4.54;68.28
58973;BME280;44750;52.040;7.472;2023-01-26T22:09:31;100932.03;;;4.57;69.46
58973;BME280;44750;52.040;7.472;2023-01-26T22:14:31;100926.44;;;4.60;70.08
58973;BME280;44750;52.040;7.472;2023-01-26T22:19:31;100926.91;;;4.54;70.64
58973;BME280;44750;52.040;7.472;2023-01-26T22:24:31;100917.13;;;4.40;71.07
58973;BME280;44750;52.040;7.472;2023-01-26T22:29:32;100915.53;;;4.37;71.14
58973;BME280;44750;52.040;7.472;2023-01-26T22:34:32;100918.75;;;4.42;71.51
58973;BME280;44750;52.040;7.472;2023-01-26T22:39:32;100902.03;;;4.39;72.64
58973;BME280;44750;52.040;7.472;2023-01-26T22:44:32;100906.53;;;4.38;72.64
58973;BME280;44750;52.040;7.472;2023-01-26T22:49:32;100912.41;;;4.43;72.83
58973;BME280;44750;52.040;7.472;2023-01-26T22:54:33;100915.09;;;4.43;73.20
58973;BME280;44750;52.040;7.472;2023-01-26T22:59:33;100918.31;;;4.35;72.67
58973;BME280;44750;52.040;7.472;2023-01-26T23:04:33;100938.38;;;4.30;72.02
58973;BME280;44750;52.040;7.472;2023-01-26T23:09:33;100953.16;;;4.23;71.21
58973;BME280;44750;52.040;7.472;2023-01-26T23:14:34;100959.25;;;4.25;70.17
58973;BME280;44750;52.040;7.472;2023-01-26T23:19:34;100961.00;;;4.26;70.69
58973;BME280;44750;52.040;7.472;2023-01-26T23:24:34;100936.97;;;4.11;71.68
58973;BME280;44750;52.040;7.472;2023-01-26T23:29:34;100931.81;;;3.95;71.61
58973;BME280;44750;52.040;7.472;2023-01-26T23:34:35;100954.00;;;4.10;70.26
58973;BME280;44750;52.040;7.472;2023-01-26T23:39:36;100952.06;;;3.99;69.91
58973;BME280;44750;52.040;7.472;2023-01-26T23:44:36;100975.31;;;4.12;68.18
58973;BME280;44750;52.040;7.472;2023-01-26T23:49:37;100974.88;;;4.05;67.78
58973;BME280;44750;52.040;7.472;2023-01-26T23:54:37;100976.50;;;3.95;67.27
58973;BME280;44750;52.040;7.472;2023-01-26T23:59:37;100983.97;;;3.90;68.33
